createdAt,value
2016-10-05T00:00:52.453Z,1024.66
2016-10-05T00:01:53.077Z,1024.59
2016-10-05T00:02:52.538Z,1024.57
2016-10-05T00:03:53.266Z,1024.54
2016-10-05T00:04:52.712Z,1024.53
2016-10-05T00:05:52.469Z,1024.52
2016-10-05T00:06:52.429Z,1024.53
2016-10-05T00:07:52.694Z,1024.53
2016-10-05T00:08:52.611Z,1024.48
2016-10-05T00:09:52.402Z,1024.47
2016-10-05T00:10:52.808Z,1024.46
2016-10-05T00:11:53.196Z,1024.46
2016-10-05T00:12:52.555Z,1024.39
2016-10-05T00:13:52.435Z,1024.37
2016-10-05T00:14:52.773Z,1024.39
2016-10-05T00:15:52.709Z,1024.4
2016-10-05T00:16:53.030Z,1024.34
2016-10-05T00:17:52.565Z,1024.31
2016-10-05T00:18:52.554Z,1024.32
2016-10-05T00:19:52.728Z,1024.28
2016-10-05T00:20:52.680Z,1024.34
2016-10-05T00:21:53.250Z,1024.32
2016-10-05T00:22:53.053Z,1024.33
2016-10-05T00:23:53.440Z,1024.28
2016-10-05T00:24:52.773Z,1024.3
2016-10-05T00:25:52.805Z,1024.33
2016-10-05T00:26:52.641Z,1024.32
2016-10-05T00:27:52.799Z,1024.33
2016-10-05T00:28:53.057Z,1024.34
2016-10-05T00:29:52.759Z,1024.34
2016-10-05T00:30:52.712Z,1024.34
2016-10-05T00:31:53.018Z,1024.35
2016-10-05T00:32:52.777Z,1024.43
2016-10-05T00:33:53.226Z,1024.43
2016-10-05T00:34:53.115Z,1024.41
2016-10-05T00:35:52.765Z,1024.39
2016-10-05T00:36:52.955Z,1024.4
2016-10-05T00:37:52.866Z,1024.41
2016-10-05T00:38:52.872Z,1024.4
2016-10-05T00:39:53.071Z,1024.44
2016-10-05T00:40:53.205Z,1024.44
2016-10-05T00:41:52.930Z,1024.43
2016-10-05T00:42:53.217Z,1024.48
2016-10-05T00:43:53.264Z,1024.44
2016-10-05T00:44:53.014Z,1024.48
2016-10-05T00:45:53.069Z,1024.5
2016-10-05T00:46:53.233Z,1024.56
2016-10-05T00:47:53.072Z,1024.59
2016-10-05T00:48:53.061Z,1024.64
2016-10-05T00:49:53.111Z,1024.59
2016-10-05T00:50:53.342Z,1024.6
2016-10-05T00:51:53.418Z,1024.6
2016-10-05T00:52:53.398Z,1024.59
2016-10-05T00:53:53.396Z,1024.57
2016-10-05T00:54:53.428Z,1024.57
2016-10-05T00:55:53.484Z,1024.52
2016-10-05T00:56:53.559Z,1024.48
2016-10-05T00:57:53.556Z,1024.44
2016-10-05T00:58:53.493Z,1024.39
2016-10-05T00:59:53.500Z,1024.37
2016-10-05T01:00:53.299Z,1024.36
2016-10-05T01:01:53.820Z,1024.31
2016-10-05T01:02:53.373Z,1024.29
2016-10-05T01:03:53.524Z,1024.3
2016-10-05T01:04:53.280Z,1024.3
2016-10-05T01:05:53.576Z,1024.3
2016-10-05T01:06:53.447Z,1024.31
2016-10-05T01:07:53.348Z,1024.3
2016-10-05T01:08:53.828Z,1024.33
2016-10-05T01:09:53.603Z,1024.3
2016-10-05T01:10:53.551Z,1024.29
2016-10-05T01:11:53.599Z,1024.25
2016-10-05T01:12:53.460Z,1024.28
2016-10-05T01:13:53.362Z,1024.29
2016-10-05T01:14:53.366Z,1024.33
2016-10-05T01:15:53.508Z,1024.33
2016-10-05T01:16:53.544Z,1024.33
2016-10-05T01:17:53.526Z,1024.35
2016-10-05T01:18:53.675Z,1024.28
2016-10-05T01:19:53.650Z,1024.25
2016-10-05T01:20:53.912Z,1024.27
2016-10-05T01:21:53.642Z,1024.25
2016-10-05T01:22:53.832Z,1024.25
2016-10-05T01:23:53.955Z,1024.23
2016-10-05T01:24:53.974Z,1024.24
2016-10-05T01:25:53.965Z,1024.25
2016-10-05T01:26:53.727Z,1024.3
2016-10-05T01:27:54.013Z,1024.26
2016-10-05T01:28:53.740Z,1024.24
2016-10-05T01:29:54.211Z,1024.24
2016-10-05T01:30:53.708Z,1024.19
2016-10-05T01:31:53.676Z,1024.18
2016-10-05T01:32:54.195Z,1024.17
2016-10-05T01:33:53.969Z,1024.18
2016-10-05T01:34:54.041Z,1024.16
2016-10-05T01:35:53.806Z,1024.09
2016-10-05T01:36:53.795Z,1024.15
2016-10-05T01:37:53.876Z,1024.18
2016-10-05T01:38:54.473Z,1024.14
2016-10-05T01:39:53.907Z,1024.1
2016-10-05T01:40:54.021Z,1024.11
2016-10-05T01:41:53.882Z,1024.1
2016-10-05T01:42:54.595Z,1024.11
2016-10-05T01:43:53.914Z,1024.07
2016-10-05T01:44:54.308Z,1024.08
2016-10-05T01:45:54.079Z,1024.11
2016-10-05T01:46:53.934Z,1024.1
2016-10-05T01:47:53.981Z,1024.12
2016-10-05T01:48:54.072Z,1024.14
2016-10-05T01:49:54.101Z,1024.11
2016-10-05T01:50:54.100Z,1024.1
2016-10-05T01:51:54.499Z,1024.1
2016-10-05T01:52:54.042Z,1024.09
2016-10-05T01:53:54.117Z,1024.12
2016-10-05T01:54:54.273Z,1024.1
2016-10-05T01:55:54.335Z,1024.12
2016-10-05T01:56:54.151Z,1024.08
2016-10-05T01:57:54.148Z,1024.09
2016-10-05T01:58:54.214Z,1024.03
2016-10-05T01:59:54.673Z,1024
2016-10-05T02:00:54.116Z,1024
2016-10-05T02:01:54.258Z,1023.99
2016-10-05T02:02:54.217Z,1024.02
2016-10-05T02:03:54.643Z,1024
2016-10-05T02:04:54.607Z,1024
2016-10-05T02:05:54.452Z,1024.03
2016-10-05T02:06:54.735Z,1023.99
2016-10-05T02:07:54.453Z,1024
2016-10-05T02:08:54.959Z,1023.94
2016-10-05T02:09:54.553Z,1023.93
2016-10-05T02:10:54.486Z,1023.93
2016-10-05T02:11:54.588Z,1023.9
2016-10-05T02:12:54.426Z,1023.98
2016-10-05T02:13:54.844Z,1023.93
2016-10-05T02:14:54.719Z,1023.97
2016-10-05T02:15:54.394Z,1023.92
2016-10-05T02:16:54.485Z,1023.93
2016-10-05T02:17:54.623Z,1023.93
2016-10-05T02:18:54.547Z,1023.94
2016-10-05T02:19:54.787Z,1023.89
2016-10-05T02:20:55.619Z,1023.9
2016-10-05T02:21:54.721Z,1023.89
2016-10-05T02:22:54.863Z,1023.85
2016-10-05T02:23:54.565Z,1023.83
2016-10-05T02:24:54.758Z,1023.84
2016-10-05T02:25:54.755Z,1023.86
2016-10-05T02:26:54.991Z,1023.87
2016-10-05T02:27:55.389Z,1023.89
2016-10-05T02:28:54.725Z,1023.85
2016-10-05T02:29:54.843Z,1023.88
2016-10-05T02:30:55.435Z,1023.87
2016-10-05T02:31:54.756Z,1023.85
2016-10-05T02:32:54.815Z,1023.86
2016-10-05T02:33:54.938Z,1023.88
2016-10-05T02:34:55.118Z,1023.87
2016-10-05T02:35:55.037Z,1023.89
2016-10-05T02:36:55.005Z,1023.91
2016-10-05T02:37:55.034Z,1023.92
2016-10-05T02:38:55.308Z,1023.92
2016-10-05T02:39:55.566Z,1023.9
2016-10-05T02:40:55.421Z,1023.88
2016-10-05T02:41:55.446Z,1023.87
2016-10-05T02:42:55.551Z,1023.84
2016-10-05T02:43:55.852Z,1023.83
2016-10-05T02:44:55.532Z,1023.82
2016-10-05T02:45:55.142Z,1023.87
2016-10-05T02:46:54.940Z,1023.79
2016-10-05T02:47:54.904Z,1023.78
2016-10-05T02:48:54.944Z,1023.77
2016-10-05T02:49:55.903Z,1023.75
2016-10-05T02:50:55.076Z,1023.75
2016-10-05T02:51:56.354Z,1023.74
2016-10-05T02:52:56.015Z,1023.7
2016-10-05T02:53:55.155Z,1023.69
2016-10-05T02:54:55.515Z,1023.67
2016-10-05T02:55:54.998Z,1023.66
2016-10-05T02:56:54.952Z,1023.7
2016-10-05T02:57:55.358Z,1023.66
2016-10-05T02:58:55.322Z,1023.68
2016-10-05T02:59:55.375Z,1023.66
2016-10-05T03:00:55.376Z,1023.7
2016-10-05T03:01:55.173Z,1023.7
2016-10-05T03:02:55.298Z,1023.68
2016-10-05T03:03:55.181Z,1023.66
2016-10-05T03:04:55.366Z,1023.62
2016-10-05T03:05:55.359Z,1023.62
2016-10-05T03:06:55.371Z,1023.63
2016-10-05T03:07:55.376Z,1023.7
2016-10-05T03:08:55.535Z,1023.69
2016-10-05T03:09:55.547Z,1023.7
2016-10-05T03:10:55.313Z,1023.65
2016-10-05T03:11:55.297Z,1023.63
2016-10-05T03:12:55.771Z,1023.64
2016-10-05T03:13:55.462Z,1023.61
2016-10-05T03:14:55.512Z,1023.61
2016-10-05T03:15:55.644Z,1023.61
2016-10-05T03:16:55.807Z,1023.65
2016-10-05T03:17:56.405Z,1023.62
2016-10-05T03:18:55.765Z,1023.63
2016-10-05T03:19:55.650Z,1023.65
2016-10-05T03:20:55.898Z,1023.65
2016-10-05T03:21:56.043Z,1023.7
2016-10-05T03:22:55.727Z,1023.76
2016-10-05T03:23:55.847Z,1023.76
2016-10-05T03:24:55.750Z,1023.71
2016-10-05T03:25:55.692Z,1023.75
2016-10-05T03:26:56.084Z,1023.71
2016-10-05T03:27:55.940Z,1023.72
2016-10-05T03:28:55.939Z,1023.76
2016-10-05T03:29:55.661Z,1023.84
2016-10-05T03:30:55.828Z,1023.79
2016-10-05T03:31:56.463Z,1023.75
2016-10-05T03:32:55.624Z,1023.76
2016-10-05T03:33:56.086Z,1023.76
2016-10-05T03:34:55.751Z,1023.77
2016-10-05T03:35:55.916Z,1023.76
2016-10-05T03:36:55.829Z,1023.76
2016-10-05T03:37:55.728Z,1023.7
2016-10-05T03:38:57.036Z,1023.72
2016-10-05T03:39:55.834Z,1023.72
2016-10-05T03:40:56.336Z,1023.7
2016-10-05T03:41:55.857Z,1023.7
2016-10-05T03:42:56.175Z,1023.67
2016-10-05T03:43:56.321Z,1023.62
2016-10-05T03:44:56.344Z,1023.63
2016-10-05T03:45:55.945Z,1023.6
2016-10-05T03:46:56.120Z,1023.58
2016-10-05T03:47:56.491Z,1023.63
2016-10-05T03:48:56.855Z,1023.6
2016-10-05T03:49:56.707Z,1023.61
2016-10-05T03:50:55.989Z,1023.67
2016-10-05T03:51:56.357Z,1023.63
2016-10-05T03:52:56.039Z,1023.62
2016-10-05T03:53:56.086Z,1023.64
2016-10-05T03:54:56.332Z,1023.62
2016-10-05T03:55:55.943Z,1023.69
2016-10-05T03:56:56.032Z,1023.72
2016-10-05T03:57:56.422Z,1023.63
2016-10-05T03:58:56.755Z,1023.69
2016-10-05T03:59:56.526Z,1023.71
2016-10-05T04:00:56.752Z,1023.65
2016-10-05T04:01:56.783Z,1023.61
2016-10-05T04:02:56.751Z,1023.57
2016-10-05T04:03:56.323Z,1023.56
2016-10-05T04:04:56.713Z,1023.53
2016-10-05T04:05:56.408Z,1023.49
2016-10-05T04:06:56.247Z,1023.49
2016-10-05T04:07:56.526Z,1023.46
2016-10-05T04:08:56.813Z,1023.44
2016-10-05T04:09:56.307Z,1023.42
2016-10-05T04:10:56.470Z,1023.45
2016-10-05T04:11:56.349Z,1023.43
2016-10-05T04:12:56.366Z,1023.41
2016-10-05T04:13:56.758Z,1023.43
2016-10-05T04:14:56.337Z,1023.5
2016-10-05T04:15:56.186Z,1023.53
2016-10-05T04:16:56.675Z,1023.54
2016-10-05T04:17:57.419Z,1023.52
2016-10-05T04:18:56.478Z,1023.54
2016-10-05T04:19:56.808Z,1023.57
2016-10-05T04:20:56.716Z,1023.55
2016-10-05T04:21:56.482Z,1023.55
2016-10-05T04:22:56.460Z,1023.51
2016-10-05T04:23:56.442Z,1023.51
2016-10-05T04:24:56.553Z,1023.5
2016-10-05T04:25:56.729Z,1023.47
2016-10-05T04:26:57.710Z,1023.49
2016-10-05T04:27:56.482Z,1023.48
2016-10-05T04:28:56.801Z,1023.51
2016-10-05T04:29:56.792Z,1023.55
2016-10-05T04:30:56.601Z,1023.62
2016-10-05T04:31:57.051Z,1023.63
2016-10-05T04:32:56.820Z,1023.62
2016-10-05T04:33:56.850Z,1023.56
2016-10-05T04:34:56.698Z,1023.51
2016-10-05T04:35:56.976Z,1023.44
2016-10-05T04:36:56.747Z,1023.45
2016-10-05T04:37:57.136Z,1023.48
2016-10-05T04:38:57.353Z,1023.44
2016-10-05T04:39:57.126Z,1023.46
2016-10-05T04:40:57.518Z,1023.45
2016-10-05T04:41:56.978Z,1023.38
2016-10-05T04:42:57.007Z,1023.34
2016-10-05T04:43:57.690Z,1023.33
2016-10-05T04:44:57.468Z,1023.36
2016-10-05T04:45:57.279Z,1023.37
2016-10-05T04:46:57.261Z,1023.4
2016-10-05T04:47:57.279Z,1023.44
2016-10-05T04:48:56.871Z,1023.39
2016-10-05T04:49:57.404Z,1023.36
2016-10-05T04:50:57.068Z,1023.36
2016-10-05T04:51:57.102Z,1023.37
2016-10-05T04:52:56.920Z,1023.43
2016-10-05T04:53:57.781Z,1023.5
2016-10-05T04:54:56.966Z,1023.51
2016-10-05T04:55:57.098Z,1023.53
2016-10-05T04:56:57.166Z,1023.52
2016-10-05T04:57:57.181Z,1023.53
2016-10-05T04:58:57.388Z,1023.48
2016-10-05T04:59:57.493Z,1023.49
2016-10-05T05:00:56.960Z,1023.48
2016-10-05T05:01:57.276Z,1023.46
2016-10-05T05:02:57.029Z,1023.45
2016-10-05T05:03:57.240Z,1023.44
2016-10-05T05:04:57.085Z,1023.42
2016-10-05T05:05:57.159Z,1023.41
2016-10-05T05:06:57.220Z,1023.43
2016-10-05T05:07:57.316Z,1023.45
2016-10-05T05:08:57.056Z,1023.45
2016-10-05T05:09:57.340Z,1023.4
2016-10-05T05:10:58.161Z,1023.41
2016-10-05T05:11:57.191Z,1023.41
2016-10-05T05:12:57.392Z,1023.46
2016-10-05T05:13:57.311Z,1023.4
2016-10-05T05:14:57.328Z,1023.38
2016-10-05T05:15:57.540Z,1023.43
2016-10-05T05:16:57.915Z,1023.44
2016-10-05T05:17:57.488Z,1023.45
2016-10-05T05:18:57.502Z,1023.52
2016-10-05T05:19:57.515Z,1023.51
2016-10-05T05:20:57.476Z,1023.51
2016-10-05T05:21:57.672Z,1023.49
2016-10-05T05:22:57.655Z,1023.58
2016-10-05T05:23:57.577Z,1023.58
2016-10-05T05:24:57.400Z,1023.62
2016-10-05T05:25:57.555Z,1023.61
2016-10-05T05:26:57.785Z,1023.65
2016-10-05T05:27:57.828Z,1023.64
2016-10-05T05:28:57.798Z,1023.66
2016-10-05T05:29:57.823Z,1023.63
2016-10-05T05:30:57.644Z,1023.58
2016-10-05T05:31:58.016Z,1023.64
2016-10-05T05:32:57.411Z,1023.63
2016-10-05T05:33:57.642Z,1023.65
2016-10-05T05:34:57.559Z,1023.62
2016-10-05T05:35:58.097Z,1023.69
2016-10-05T05:36:57.466Z,1023.69
2016-10-05T05:37:57.438Z,1023.65
2016-10-05T05:38:57.707Z,1023.72
2016-10-05T05:39:58.047Z,1023.71
2016-10-05T05:40:58.699Z,1023.68
2016-10-05T05:41:57.763Z,1023.64
2016-10-05T05:42:57.674Z,1023.65
2016-10-05T05:43:57.647Z,1023.64
2016-10-05T05:44:58.095Z,1023.68
2016-10-05T05:45:57.878Z,1023.64
2016-10-05T05:46:58.356Z,1023.67
2016-10-05T05:47:57.834Z,1023.7
2016-10-05T05:48:57.850Z,1023.72
2016-10-05T05:49:57.812Z,1023.7
2016-10-05T05:50:58.198Z,1023.72
2016-10-05T05:51:57.938Z,1023.74
2016-10-05T05:52:57.980Z,1023.76
2016-10-05T05:53:58.207Z,1023.82
2016-10-05T05:54:57.962Z,1023.77
2016-10-05T05:55:57.851Z,1023.78
2016-10-05T05:56:58.214Z,1023.77
2016-10-05T05:57:58.000Z,1023.77
2016-10-05T05:58:58.544Z,1023.82
2016-10-05T05:59:57.918Z,1023.8
2016-10-05T06:00:58.081Z,1023.82
2016-10-05T06:01:57.882Z,1023.79
2016-10-05T06:02:58.142Z,1023.77
2016-10-05T06:03:58.039Z,1023.77
2016-10-05T06:04:58.172Z,1023.82
2016-10-05T06:05:58.068Z,1023.82
2016-10-05T06:06:58.122Z,1023.85
2016-10-05T06:07:58.213Z,1023.9
2016-10-05T06:08:58.163Z,1023.84
2016-10-05T06:09:58.582Z,1023.9
2016-10-05T06:10:58.090Z,1023.88
2016-10-05T06:11:58.258Z,1023.85
2016-10-05T06:12:58.350Z,1023.84
2016-10-05T06:13:58.371Z,1023.79
2016-10-05T06:14:58.320Z,1023.84
2016-10-05T06:15:58.473Z,1023.83
2016-10-05T06:16:58.443Z,1023.81
2016-10-05T06:17:58.318Z,1023.81
2016-10-05T06:18:58.419Z,1023.86
2016-10-05T06:19:58.175Z,1023.87
2016-10-05T06:20:58.145Z,1023.85
2016-10-05T06:21:58.455Z,1023.87
2016-10-05T06:22:58.560Z,1023.85
2016-10-05T06:23:58.440Z,1023.86
2016-10-05T06:24:58.420Z,1023.93
2016-10-05T06:25:58.435Z,1023.93
2016-10-05T06:26:58.781Z,1023.93
2016-10-05T06:27:58.290Z,1023.89
2016-10-05T06:28:58.315Z,1023.91
2016-10-05T06:29:58.729Z,1023.92
2016-10-05T06:30:59.164Z,1023.96
2016-10-05T06:31:58.726Z,1023.91
2016-10-05T06:32:58.514Z,1023.93
2016-10-05T06:33:58.400Z,1023.89
2016-10-05T06:34:58.893Z,1023.86
2016-10-05T06:35:58.645Z,1023.85
2016-10-05T06:36:58.872Z,1023.8
2016-10-05T06:37:59.045Z,1023.83
2016-10-05T06:38:58.708Z,1023.82
2016-10-05T06:39:58.842Z,1023.83
2016-10-05T06:40:58.780Z,1023.83
2016-10-05T06:41:58.744Z,1023.8
2016-10-05T06:42:59.261Z,1023.79
2016-10-05T06:43:58.588Z,1023.83
2016-10-05T06:44:58.807Z,1023.79
2016-10-05T06:45:58.984Z,1023.85
2016-10-05T06:46:58.968Z,1023.85
2016-10-05T06:47:58.770Z,1023.86
2016-10-05T06:48:58.651Z,1023.88
2016-10-05T06:49:58.762Z,1023.87
2016-10-05T06:50:59.056Z,1023.88
2016-10-05T06:51:58.752Z,1023.88
2016-10-05T06:52:59.273Z,1023.88
2016-10-05T06:53:58.887Z,1023.9
2016-10-05T06:54:58.727Z,1023.92
2016-10-05T06:55:58.904Z,1023.93
2016-10-05T06:56:59.619Z,1023.96
2016-10-05T06:57:59.060Z,1023.91
2016-10-05T06:58:59.066Z,1023.93
2016-10-05T06:59:59.073Z,1023.96
2016-10-05T07:00:58.951Z,1023.97
2016-10-05T07:01:59.086Z,1023.94
2016-10-05T07:02:59.043Z,1023.93
2016-10-05T07:03:59.579Z,1023.9
2016-10-05T07:04:58.956Z,1023.86
2016-10-05T07:05:59.173Z,1023.86
2016-10-05T07:06:59.023Z,1023.92
2016-10-05T07:07:58.985Z,1023.9
2016-10-05T07:08:58.962Z,1023.86
2016-10-05T07:09:59.192Z,1023.86
2016-10-05T07:10:59.569Z,1023.84
2016-10-05T07:11:58.993Z,1023.9
2016-10-05T07:12:59.105Z,1023.88
2016-10-05T07:13:59.098Z,1023.85
2016-10-05T07:14:59.048Z,1023.8
2016-10-05T07:15:59.777Z,1023.84
2016-10-05T07:16:59.371Z,1023.83
2016-10-05T07:17:59.620Z,1023.86
2016-10-05T07:18:59.405Z,1023.86
2016-10-05T07:19:59.071Z,1023.84
2016-10-05T07:20:59.246Z,1023.83
2016-10-05T07:21:59.233Z,1023.75
2016-10-05T07:22:59.444Z,1023.85
2016-10-05T07:23:59.153Z,1023.81
2016-10-05T07:24:59.381Z,1023.82
2016-10-05T07:25:59.608Z,1023.82
2016-10-05T07:26:59.853Z,1023.82
2016-10-05T07:27:59.362Z,1023.79
2016-10-05T07:28:59.434Z,1023.84
2016-10-05T07:30:00.127Z,1023.83
2016-10-05T07:30:59.334Z,1023.83
2016-10-05T07:31:59.485Z,1023.83
2016-10-05T07:32:59.540Z,1023.85
2016-10-05T07:33:59.493Z,1023.83
2016-10-05T07:34:59.644Z,1023.82
2016-10-05T07:35:59.391Z,1023.8
2016-10-05T07:36:59.709Z,1023.85
2016-10-05T07:37:59.848Z,1023.82
2016-10-05T07:38:59.457Z,1023.8
2016-10-05T07:39:59.470Z,1023.79
2016-10-05T07:40:59.634Z,1023.8
2016-10-05T07:41:59.773Z,1023.89
2016-10-05T07:42:59.551Z,1023.87
2016-10-05T07:43:59.492Z,1023.88
2016-10-05T07:44:59.713Z,1023.84
2016-10-05T07:46:00.108Z,1023.82
2016-10-05T07:46:59.596Z,1023.83
2016-10-05T07:47:59.889Z,1023.86
2016-10-05T07:49:00.120Z,1023.83
2016-10-05T07:49:59.602Z,1023.89
2016-10-05T07:51:00.031Z,1023.83
2016-10-05T07:51:59.942Z,1023.78
2016-10-05T07:52:59.904Z,1023.76
2016-10-05T07:53:59.987Z,1023.75
2016-10-05T07:54:59.692Z,1023.78
2016-10-05T07:55:59.845Z,1023.82
2016-10-05T07:57:00.055Z,1023.84
2016-10-05T07:58:00.331Z,1023.85
2016-10-05T07:59:00.390Z,1023.82
2016-10-05T07:59:59.959Z,1023.83
2016-10-05T08:01:00.005Z,1023.82
2016-10-05T08:02:00.198Z,1023.87
2016-10-05T08:02:59.848Z,1023.88
2016-10-05T08:04:00.137Z,1023.89
2016-10-05T08:05:00.178Z,1023.9
2016-10-05T08:06:00.685Z,1023.87
2016-10-05T08:06:59.918Z,1023.87
2016-10-05T08:07:59.971Z,1023.89
2016-10-05T08:08:59.986Z,1023.87
2016-10-05T08:10:00.098Z,1023.89
2016-10-05T08:11:00.277Z,1023.95
2016-10-05T08:12:00.224Z,1023.98
2016-10-05T08:13:00.121Z,1024.04
2016-10-05T08:14:00.244Z,1023.98
2016-10-05T08:14:59.989Z,1024
2016-10-05T08:16:00.845Z,1024.03
2016-10-05T08:17:00.031Z,1024.04
2016-10-05T08:18:00.180Z,1024.05
2016-10-05T08:19:00.039Z,1024.01
2016-10-05T08:20:00.207Z,1024.06
2016-10-05T08:21:00.435Z,1024.04
2016-10-05T08:22:00.681Z,1024.07
2016-10-05T08:23:00.567Z,1024.04
2016-10-05T08:24:00.166Z,1024.01
2016-10-05T08:25:00.728Z,1024.09
2016-10-05T08:26:00.683Z,1024.04
2016-10-05T08:27:00.465Z,1023.96
2016-10-05T08:28:01.116Z,1024
2016-10-05T08:29:00.618Z,1024
2016-10-05T08:30:00.732Z,1023.96
2016-10-05T08:31:00.319Z,1023.99
2016-10-05T08:32:00.695Z,1023.93
2016-10-05T08:33:00.430Z,1023.96
2016-10-05T08:34:00.780Z,1023.95
2016-10-05T08:35:00.615Z,1024.01
2016-10-05T08:36:01.658Z,1023.96
2016-10-05T08:37:01.191Z,1023.96
2016-10-05T08:38:00.629Z,1023.98
2016-10-05T08:39:00.662Z,1023.98
2016-10-05T08:40:00.845Z,1024
2016-10-05T08:41:00.546Z,1023.94
2016-10-05T08:42:01.165Z,1023.89
2016-10-05T08:43:00.718Z,1023.85
2016-10-05T08:44:00.727Z,1023.8
2016-10-05T08:45:00.973Z,1023.8
2016-10-05T08:46:00.742Z,1023.85
2016-10-05T08:47:00.675Z,1023.83
2016-10-05T08:48:00.895Z,1023.87
2016-10-05T08:49:00.667Z,1023.94
2016-10-05T08:50:01.126Z,1023.92
2016-10-05T08:51:00.794Z,1023.98
2016-10-05T08:52:00.904Z,1023.91
2016-10-05T08:53:00.829Z,1023.96
2016-10-05T08:54:01.387Z,1023.96
2016-10-05T08:55:01.054Z,1023.92
2016-10-05T08:56:01.117Z,1023.96
2016-10-05T08:57:01.260Z,1024.05
2016-10-05T08:58:00.989Z,1024
2016-10-05T08:59:01.084Z,1024.01
2016-10-05T09:00:01.218Z,1024.02
2016-10-05T09:01:01.038Z,1024.04
2016-10-05T09:02:01.057Z,1024.01
2016-10-05T09:03:01.638Z,1023.96
2016-10-05T09:04:01.053Z,1024
2016-10-05T09:05:01.512Z,1023.95
2016-10-05T09:06:01.471Z,1023.9
2016-10-05T09:07:01.447Z,1023.91
2016-10-05T09:08:01.434Z,1023.92
2016-10-05T09:09:01.488Z,1023.9
2016-10-05T09:10:01.152Z,1023.89
2016-10-05T09:11:01.255Z,1023.85
2016-10-05T09:12:01.483Z,1023.85
2016-10-05T09:13:01.550Z,1023.79
2016-10-05T09:14:01.153Z,1023.73
2016-10-05T09:15:01.351Z,1023.76
2016-10-05T09:16:01.359Z,1023.76
2016-10-05T09:17:01.503Z,1023.75
2016-10-05T09:18:01.215Z,1023.72
2016-10-05T09:19:01.405Z,1023.77
2016-10-05T09:20:01.326Z,1023.79
2016-10-05T09:21:01.282Z,1023.8
2016-10-05T09:22:01.918Z,1023.8
2016-10-05T09:23:01.560Z,1023.85
2016-10-05T09:24:01.571Z,1023.8
2016-10-05T09:25:01.694Z,1023.79
2016-10-05T09:26:01.767Z,1023.83
2016-10-05T09:27:02.040Z,1024
2016-10-05T09:28:01.639Z,1024.01
2016-10-05T09:29:01.700Z,1024.02
2016-10-05T09:30:01.898Z,1023.93
2016-10-05T09:31:01.723Z,1023.86
2016-10-05T09:32:01.718Z,1023.85
2016-10-05T09:33:01.952Z,1023.92
2016-10-05T09:34:02.832Z,1023.94
2016-10-05T09:35:02.347Z,1024.03
2016-10-05T09:36:01.722Z,1024.11
2016-10-05T09:37:01.808Z,1024.24
2016-10-05T09:38:02.988Z,1024.19
2016-10-05T09:39:02.633Z,1024.1
2016-10-05T09:40:02.125Z,1023.98
2016-10-05T09:41:02.260Z,1023.89
2016-10-05T09:42:02.456Z,1023.86
2016-10-05T09:43:02.088Z,1023.84
2016-10-05T09:44:02.132Z,1023.74
2016-10-05T09:45:01.864Z,1023.74
2016-10-05T09:46:02.110Z,1023.72
2016-10-05T09:47:02.100Z,1023.8
2016-10-05T09:48:02.256Z,1023.89
2016-10-05T09:49:02.029Z,1023.76
2016-10-05T09:50:02.096Z,1023.7
2016-10-05T09:51:02.068Z,1023.72
2016-10-05T09:52:02.182Z,1023.7
2016-10-05T09:53:02.167Z,1023.74
2016-10-05T09:54:02.205Z,1023.8
2016-10-05T09:55:02.690Z,1023.96
2016-10-05T09:56:02.223Z,1023.88
2016-10-05T09:57:02.351Z,1023.82
2016-10-05T09:58:02.652Z,1023.79
2016-10-05T09:59:02.844Z,1023.82
2016-10-05T10:00:02.515Z,1023.74
2016-10-05T10:01:02.525Z,1023.78
2016-10-05T10:02:02.268Z,1023.79
2016-10-05T10:03:02.606Z,1023.69
2016-10-05T10:04:02.539Z,1023.69
2016-10-05T10:05:02.736Z,1023.7
2016-10-05T10:06:02.713Z,1023.62
2016-10-05T10:07:02.647Z,1023.73
2016-10-05T10:08:02.492Z,1023.72
2016-10-05T10:09:02.596Z,1023.81
2016-10-05T10:10:02.482Z,1023.89
2016-10-05T10:11:03.046Z,1023.84
2016-10-05T10:12:02.776Z,1023.78
2016-10-05T10:13:02.709Z,1023.87
2016-10-05T10:14:03.107Z,1023.81
2016-10-05T10:15:02.695Z,1023.7
2016-10-05T10:16:02.764Z,1023.58
2016-10-05T10:17:02.701Z,1023.6
2016-10-05T10:18:02.666Z,1023.68
2016-10-05T10:19:02.961Z,1023.74
2016-10-05T10:20:02.745Z,1023.66
2016-10-05T10:21:03.279Z,1023.65
2016-10-05T10:22:03.026Z,1023.66
2016-10-05T10:23:03.227Z,1023.68
2016-10-05T10:24:03.009Z,1023.74
2016-10-05T10:25:02.821Z,1023.74
2016-10-05T10:26:03.366Z,1023.68
2016-10-05T10:27:02.960Z,1023.64
2016-10-05T10:28:02.859Z,1023.56
2016-10-05T10:29:03.295Z,1023.54
2016-10-05T10:30:03.049Z,1023.63
2016-10-05T10:31:03.029Z,1023.69
2016-10-05T10:32:03.186Z,1023.69
2016-10-05T10:33:03.074Z,1023.61
2016-10-05T10:34:03.078Z,1023.59
2016-10-05T10:35:03.105Z,1023.47
2016-10-05T10:36:03.441Z,1023.4
2016-10-05T10:37:03.590Z,1023.26
2016-10-05T10:38:03.260Z,1023.19
2016-10-05T10:39:04.221Z,1023.14
2016-10-05T10:40:03.125Z,1023.04
2016-10-05T10:41:03.371Z,1023.03
2016-10-05T10:42:03.290Z,1023.02
2016-10-05T10:43:03.425Z,1023.01
2016-10-05T10:44:03.484Z,1022.95
2016-10-05T10:45:03.581Z,1022.84
2016-10-05T10:46:03.635Z,1022.81
2016-10-05T10:47:03.686Z,1022.76
2016-10-05T10:48:03.522Z,1022.74
2016-10-05T10:49:03.774Z,1022.59
2016-10-05T10:50:03.332Z,1022.59
2016-10-05T10:51:04.006Z,1022.63
2016-10-05T10:52:03.408Z,1022.71
2016-10-05T10:53:03.831Z,1022.68
2016-10-05T10:54:03.989Z,1022.69
2016-10-05T10:55:03.523Z,1022.64
2016-10-05T10:56:03.557Z,1022.66
2016-10-05T10:57:03.966Z,1022.68
2016-10-05T10:58:03.678Z,1022.69
2016-10-05T10:59:03.679Z,1022.72
2016-10-05T11:00:04.043Z,1022.8
2016-10-05T11:01:03.650Z,1022.87
2016-10-05T11:02:03.834Z,1022.89
2016-10-05T11:03:03.810Z,1022.86
2016-10-05T11:04:03.863Z,1022.9
2016-10-05T11:05:03.780Z,1022.85
2016-10-05T11:06:03.861Z,1022.8
2016-10-05T11:07:03.869Z,1022.72
2016-10-05T11:08:04.347Z,1022.66
2016-10-05T11:09:03.798Z,1022.64
2016-10-05T11:10:04.193Z,1022.66
2016-10-05T11:11:03.890Z,1022.65
2016-10-05T11:12:04.200Z,1022.66
2016-10-05T11:13:04.089Z,1022.63
2016-10-05T11:14:04.040Z,1022.62
2016-10-05T11:15:04.046Z,1022.69
2016-10-05T11:16:03.915Z,1022.6
2016-10-05T11:17:04.240Z,1022.6
2016-10-05T11:18:04.081Z,1022.61
2016-10-05T11:19:04.051Z,1022.68
2016-10-05T11:20:04.200Z,1022.66
2016-10-05T11:21:04.285Z,1022.58
2016-10-05T11:22:04.488Z,1022.62
2016-10-05T11:23:04.057Z,1022.63
2016-10-05T11:24:04.319Z,1022.6
2016-10-05T11:25:04.195Z,1022.53
2016-10-05T11:26:04.200Z,1022.44
2016-10-05T11:27:04.262Z,1022.43
2016-10-05T11:28:04.460Z,1022.43
2016-10-05T11:29:04.302Z,1022.41
2016-10-05T11:30:04.781Z,1022.41
2016-10-05T11:31:04.557Z,1022.37
2016-10-05T11:32:04.353Z,1022.39
2016-10-05T11:33:04.606Z,1022.35
2016-10-05T11:34:04.392Z,1022.34
2016-10-05T11:35:04.328Z,1022.36
2016-10-05T11:36:04.465Z,1022.32
2016-10-05T11:37:04.755Z,1022.29
2016-10-05T11:38:04.550Z,1022.24
2016-10-05T11:39:04.454Z,1022.28
2016-10-05T11:40:04.497Z,1022.25
2016-10-05T11:41:05.445Z,1022.26
2016-10-05T11:42:04.944Z,1022.26
2016-10-05T11:43:04.409Z,1022.24
2016-10-05T11:44:04.434Z,1022.32
2016-10-05T11:45:04.842Z,1022.23
2016-10-05T11:46:05.122Z,1022.17
2016-10-05T11:47:04.948Z,1022.21
2016-10-05T11:48:04.949Z,1022.15
2016-10-05T11:49:04.752Z,1022.14
2016-10-05T11:50:04.708Z,1022.04
2016-10-05T11:51:04.914Z,1021.96
2016-10-05T11:52:05.372Z,1021.92
2016-10-05T11:53:05.043Z,1021.91
2016-10-05T11:54:04.849Z,1021.91
2016-10-05T11:55:04.889Z,1021.93
2016-10-05T11:56:05.649Z,1021.91
2016-10-05T11:57:05.317Z,1021.84
2016-10-05T11:58:05.248Z,1021.9
2016-10-05T11:59:04.804Z,1021.93
2016-10-05T12:00:04.849Z,1021.99
2016-10-05T12:01:04.838Z,1021.89
2016-10-05T12:02:04.984Z,1021.85
2016-10-05T12:03:05.249Z,1021.77
2016-10-05T12:04:05.486Z,1021.78
2016-10-05T12:05:05.233Z,1021.76
2016-10-05T12:06:05.877Z,1021.85
2016-10-05T12:07:05.402Z,1021.9
2016-10-05T12:08:05.050Z,1021.86
2016-10-05T12:09:05.166Z,1021.75
2016-10-05T12:10:05.170Z,1021.7